createdAt,value
2018-08-04T00:04:12.357Z,5.43
2018-08-04T00:09:03.265Z,4.57
2018-08-04T00:13:54.167Z,5.07
2018-08-04T00:18:45.119Z,4.57
2018-08-04T00:23:36.032Z,4.60
2018-08-04T00:28:26.968Z,4.20
2018-08-04T00:33:17.876Z,4.03
2018-08-04T00:38:08.783Z,3.83
2018-08-04T00:42:59.671Z,4.47
2018-08-04T00:47:50.585Z,4.03
2018-08-04T00:52:41.471Z,4.13
2018-08-04T00:57:33.133Z,3.90
2018-08-04T01:02:24.099Z,4.17
2018-08-04T01:07:15.015Z,4.10
2018-08-04T01:12:05.955Z,4.30
2018-08-04T01:16:56.906Z,3.77
2018-08-04T01:21:47.848Z,4.13
2018-08-04T01:26:38.803Z,4.20
2018-08-04T01:31:29.749Z,4.37
2018-08-04T01:36:21.400Z,3.97
2018-08-04T01:41:12.392Z,4.07
2018-08-04T01:46:03.315Z,4.03
2018-08-04T01:50:55.053Z,4.13
2018-08-04T01:55:46.708Z,4.00
2018-08-04T02:00:37.635Z,3.47
2018-08-04T02:05:28.629Z,3.90
2018-08-04T02:10:19.540Z,3.70
2018-08-04T02:15:10.553Z,3.50
2018-08-04T02:20:01.483Z,4.03
2018-08-04T02:24:53.228Z,3.70
2018-08-04T02:29:44.948Z,4.13
2018-08-04T02:34:35.861Z,4.13
2018-08-04T02:39:26.788Z,3.20
2018-08-04T02:44:17.685Z,4.00
2018-08-04T02:49:08.592Z,3.93
2018-08-04T02:53:59.508Z,3.83
2018-08-04T02:58:50.415Z,3.50
2018-08-04T03:03:41.422Z,3.93
2018-08-04T03:08:32.357Z,3.30
2018-08-04T03:13:23.267Z,3.20
2018-08-04T03:18:14.184Z,4.07
2018-08-04T03:23:05.095Z,3.30
2018-08-04T03:27:56.087Z,3.90
2018-08-04T03:32:47.739Z,4.00
2018-08-04T03:37:39.450Z,3.50
2018-08-04T03:42:30.473Z,4.43
2018-08-04T03:47:21.389Z,4.53
2018-08-04T03:52:12.416Z,4.53
2018-08-04T03:57:03.321Z,3.90
2018-08-04T04:01:54.352Z,5.83
2018-08-04T04:06:45.370Z,3.83
2018-08-04T04:11:37.001Z,3.80
2018-08-04T04:16:27.903Z,5.50
2018-08-04T04:21:18.828Z,4.60
2018-08-04T04:26:09.750Z,5.13
2018-08-04T04:31:00.693Z,4.13
2018-08-04T04:35:52.366Z,4.07
2018-08-04T04:40:43.329Z,4.20
2018-08-04T04:45:34.231Z,3.90
2018-08-04T04:50:25.145Z,4.07
2018-08-04T04:55:16.099Z,5.03
2018-08-04T05:00:06.996Z,3.87
2018-08-04T05:04:57.915Z,3.40
2018-08-04T05:09:48.830Z,3.40
2018-08-04T05:14:39.761Z,3.40
2018-08-04T05:19:30.691Z,4.17
2018-08-04T05:24:21.718Z,3.93
2018-08-04T05:29:13.388Z,3.77
2018-08-04T05:34:04.358Z,4.33
2018-08-04T05:38:55.273Z,3.90
2018-08-04T05:43:46.203Z,4.30
2018-08-04T05:48:37.138Z,4.00
2018-08-04T05:53:28.859Z,3.93
2018-08-04T05:58:20.539Z,3.63
2018-08-04T06:03:11.591Z,4.60
2018-08-04T06:08:02.477Z,4.20
2018-08-04T06:12:53.462Z,4.83
2018-08-04T06:17:45.120Z,6.23
2018-08-04T06:22:36.039Z,4.17
2018-08-04T06:27:27.089Z,4.10
2018-08-04T06:32:18.002Z,5.80
2018-08-04T06:37:08.984Z,4.40
2018-08-04T06:42:00.620Z,5.00
2018-08-04T06:46:52.280Z,4.60
2018-08-04T06:51:43.239Z,4.57
2018-08-04T06:56:34.181Z,4.20
2018-08-04T07:01:25.120Z,4.37
2018-08-04T07:06:16.819Z,4.77
2018-08-04T07:11:07.736Z,4.67
2018-08-04T07:15:58.667Z,4.20
2018-08-04T07:20:49.680Z,3.57
2018-08-04T07:25:40.702Z,4.37
2018-08-04T07:30:32.634Z,4.27
2018-08-04T07:35:23.570Z,3.70
2018-08-04T07:40:14.597Z,3.63
2018-08-04T07:45:05.544Z,4.00
2018-08-04T07:49:56.533Z,3.70
2018-08-04T07:54:47.453Z,3.33
2018-08-04T07:59:38.376Z,3.50
2018-08-04T08:04:30.122Z,3.33
2018-08-04T08:09:21.818Z,3.03
2018-08-04T08:14:12.732Z,3.83
2018-08-04T08:19:03.661Z,3.23
2018-08-04T08:23:54.603Z,3.20
2018-08-04T08:28:46.315Z,3.80
2018-08-04T08:33:37.224Z,4.23
2018-08-04T08:38:28.176Z,4.40
2018-08-04T08:43:19.196Z,3.90
2018-08-04T08:48:10.112Z,4.37
2018-08-04T08:53:01.809Z,4.70
2018-08-04T08:57:52.748Z,4.40
2018-08-04T09:02:43.799Z,4.40
2018-08-04T09:07:35.492Z,4.37
2018-08-04T09:12:26.413Z,7.13
2018-08-04T09:17:17.336Z,4.83
2018-08-04T09:22:08.713Z,4.20
2018-08-04T09:27:00.404Z,5.23
2018-08-04T09:31:51.331Z,4.33
2018-08-04T09:36:42.287Z,4.50
2018-08-04T09:41:33.971Z,4.67
2018-08-04T09:46:24.909Z,4.53
2018-08-04T09:51:16.033Z,4.27
2018-08-04T09:56:08.485Z,5.70
2018-08-04T10:00:59.412Z,4.87
2018-08-04T10:05:50.333Z,4.67
2018-08-04T10:10:41.310Z,6.77
2018-08-04T10:15:32.285Z,5.00
2018-08-04T10:20:24.000Z,6.50
2018-08-04T10:25:14.912Z,4.97
2018-08-04T10:30:05.838Z,4.70
2018-08-04T10:34:56.735Z,4.60
2018-08-04T10:39:47.643Z,5.67
2018-08-04T10:44:38.618Z,5.73
2018-08-04T10:49:30.335Z,5.57
2018-08-04T10:54:21.242Z,5.10
2018-08-04T10:59:12.300Z,5.37
2018-08-04T11:04:04.026Z,5.30
2018-08-04T11:08:55.695Z,5.00
2018-08-04T11:13:46.666Z,5.33
2018-08-04T11:18:37.693Z,5.77
2018-08-04T11:23:28.599Z,5.30
2018-08-04T11:28:19.515Z,4.93
2018-08-04T11:33:10.465Z,5.37
2018-08-04T11:38:01.400Z,5.30
2018-08-04T11:42:52.349Z,4.83
2018-08-04T11:47:43.269Z,5.37
2018-08-04T11:52:34.182Z,5.20
2018-08-04T11:57:25.085Z,5.40
2018-08-04T12:02:15.987Z,5.77
2018-08-04T12:07:06.920Z,5.90
2018-08-04T12:11:57.875Z,5.63
2018-08-04T12:16:48.795Z,5.63
2018-08-04T12:21:39.691Z,6.20
2018-08-04T12:26:30.607Z,5.90
2018-08-04T12:31:21.557Z,5.93
2018-08-04T12:36:12.495Z,6.80
2018-08-04T12:41:04.294Z,5.40
2018-08-04T12:45:55.247Z,5.50
2018-08-04T12:50:46.180Z,6.10
2018-08-04T12:55:37.838Z,5.93
2018-08-04T13:00:28.728Z,5.97
2018-08-04T13:05:20.378Z,6.03
2018-08-04T13:10:12.028Z,5.90
2018-08-04T13:15:02.947Z,5.40
2018-08-04T13:19:53.868Z,6.20
2018-08-04T13:24:44.815Z,5.10
2018-08-04T13:29:35.734Z,5.73
2018-08-04T13:34:26.710Z,5.67
2018-08-04T13:39:17.615Z,5.90
2018-08-04T13:44:09.273Z,5.40
2018-08-04T13:49:00.183Z,5.90
2018-08-04T13:53:51.115Z,5.60
2018-08-04T13:58:42.049Z,5.97
2018-08-04T14:03:32.966Z,6.37
2018-08-04T14:08:23.883Z,5.70
2018-08-04T14:13:14.793Z,6.53
2018-08-04T14:18:05.732Z,5.43
2018-08-04T14:22:56.704Z,5.43
2018-08-04T14:27:47.617Z,5.53
2018-08-04T14:32:39.270Z,6.00
2018-08-04T14:37:30.192Z,6.53
2018-08-04T14:42:21.113Z,5.90
2018-08-04T14:47:12.062Z,6.00
2018-08-04T14:52:03.009Z,6.50
2018-08-04T14:56:53.920Z,6.93
2018-08-04T15:01:44.857Z,6.50
2018-08-04T15:06:36.519Z,7.13
2018-08-04T15:11:27.431Z,7.07
2018-08-04T15:16:18.408Z,7.23
2018-08-04T15:21:09.344Z,7.00
2018-08-04T15:26:00.252Z,7.37
2018-08-04T15:30:52.672Z,6.83
2018-08-04T15:35:43.597Z,7.03
2018-08-04T15:40:34.524Z,7.43
2018-08-04T15:45:25.457Z,7.27
2018-08-04T15:50:16.400Z,7.40
2018-08-04T15:55:08.047Z,8.20
2018-08-04T15:59:58.990Z,8.00
2018-08-04T16:04:49.896Z,7.87
2018-08-04T16:09:40.832Z,8.03
2018-08-04T16:14:31.735Z,7.50
2018-08-04T16:19:22.658Z,8.07
2018-08-04T16:24:13.585Z,7.97
2018-08-04T16:29:04.507Z,7.37
2018-08-04T16:33:55.421Z,7.70
2018-08-04T16:38:46.349Z,7.60
2018-08-04T16:43:37.308Z,8.00
2018-08-04T16:48:28.967Z,7.63
2018-08-04T16:53:20.620Z,8.37
2018-08-04T16:58:11.533Z,8.33
2018-08-04T17:03:04.122Z,7.67
2018-08-04T17:07:55.066Z,7.43
2018-08-04T17:12:46.032Z,8.03
2018-08-04T17:17:36.942Z,7.90
2018-08-04T17:22:27.887Z,7.10
2018-08-04T17:27:18.803Z,7.87
2018-08-04T17:32:09.769Z,8.90
2018-08-04T17:37:01.429Z,7.73
2018-08-04T17:41:52.341Z,6.90
2018-08-04T17:46:44.015Z,7.40
2018-08-04T17:51:35.008Z,7.03
2018-08-04T17:56:25.886Z,6.73
2018-08-04T18:01:16.813Z,7.03
2018-08-04T18:06:07.708Z,6.20
2018-08-04T18:10:58.633Z,7.77
2018-08-04T18:15:49.536Z,7.10
2018-08-04T18:20:40.441Z,6.90
2018-08-04T18:25:31.358Z,6.30
2018-08-04T18:30:22.270Z,7.33
2018-08-04T18:35:13.197Z,6.30
2018-08-04T18:40:04.104Z,7.07
2018-08-04T18:44:55.017Z,6.03
2018-08-04T18:49:45.930Z,5.37
2018-08-04T18:54:36.836Z,6.40
2018-08-04T18:59:28.489Z,5.93
2018-08-04T19:04:19.431Z,5.63
2018-08-04T19:09:10.330Z,5.67
2018-08-04T19:14:01.249Z,5.17
2018-08-04T19:18:52.263Z,5.70
2018-08-04T19:23:43.188Z,5.33
2018-08-04T19:28:34.143Z,5.40
2018-08-04T19:33:24.994Z,4.90
2018-08-04T19:38:16.633Z,5.47
2018-08-04T19:43:08.279Z,5.10
2018-08-04T19:47:59.175Z,5.37
2018-08-04T19:52:50.838Z,4.73
2018-08-04T19:57:41.750Z,4.60
2018-08-04T20:02:32.673Z,4.67
2018-08-04T20:07:23.629Z,4.43
2018-08-04T20:12:14.589Z,6.90
2018-08-04T20:17:06.231Z,3.87
2018-08-04T20:21:57.943Z,4.23
2018-08-04T20:26:48.863Z,3.83
2018-08-04T20:31:39.889Z,3.83
2018-08-04T20:36:31.562Z,4.20
2018-08-04T20:41:22.498Z,4.57
2018-08-04T20:46:13.400Z,4.87
2018-08-04T20:51:04.334Z,4.80
2018-08-04T20:55:55.295Z,4.80
2018-08-04T21:00:46.213Z,4.90
2018-08-04T21:05:37.889Z,4.60
2018-08-04T21:10:28.811Z,4.63
2018-08-04T21:15:19.704Z,4.93
2018-08-04T21:20:11.352Z,4.77
2018-08-04T21:25:02.265Z,4.87
2018-08-04T21:29:53.923Z,4.67
2018-08-04T21:34:44.836Z,4.93
2018-08-04T21:39:35.744Z,5.90
2018-08-04T21:44:26.701Z,4.73
2018-08-04T21:49:17.600Z,5.10
2018-08-04T21:54:08.513Z,6.37
2018-08-04T21:58:59.416Z,5.00
2018-08-04T22:03:50.537Z,4.97
2018-08-04T22:14:11.305Z,4.60
2018-08-04T22:19:02.226Z,5.17
2018-08-04T22:23:53.143Z,4.97
2018-08-04T22:28:44.131Z,4.83
2018-08-04T22:33:35.834Z,5.13
2018-08-04T22:38:26.861Z,4.83
2018-08-04T22:43:18.656Z,4.53
2018-08-04T22:48:09.600Z,4.50
2018-08-04T22:53:00.583Z,5.00
2018-08-04T22:57:51.512Z,4.80
2018-08-04T23:02:42.485Z,4.67
2018-08-04T23:07:33.509Z,4.60
2018-08-04T23:12:24.519Z,4.17
2018-08-04T23:17:15.445Z,4.77
2018-08-04T23:22:06.364Z,4.03
2018-08-04T23:26:57.376Z,4.50
2018-08-04T23:31:48.307Z,3.77
2018-08-04T23:36:40.057Z,4.13
2018-08-04T23:41:31.724Z,3.47
2018-08-04T23:46:22.619Z,3.43
2018-08-04T23:51:13.613Z,3.53
2018-08-04T23:56:05.271Z,2.83
